sensor_id;sensor_type;location;lat;lon;timestamp;P1;durP1;ratioP1;P2;durP2;ratioP2
13651;SDS011;6899;51.546;6.912;2022-10-31T00:00:42;23.52;;;14.13;;
13651;SDS011;6899;51.546;6.912;2022-10-31T00:03:15;21.55;;;13.05;;
13651;SDS011;6899;51.546;6.912;2022-10-31T00:05:45;19.58;;;13.18;;
13651;SDS011;6899;51.546;6.912;2022-10-31T00:08:12;18.75;;;12.20;;
13651;SDS011;6899;51.546;6.912;2022-10-31T00:10:40;22.92;;;13.95;;
13651;SDS011;6899;51.546;6.912;2022-10-31T00:13:07;26.55;;;14.70;;
13651;SDS011;6899;51.546;6.912;2022-10-31T00:15:35;22.52;;;13.65;;
13651;SDS011;6899;51.546;6.912;2022-10-31T00:18:04;21.35;;;13.10;;
13651;SDS011;6899;51.546;6.912;2022-10-31T00:20:31;17.42;;;12.45;;
13651;SDS011;6899;51.546;6.912;2022-10-31T00:23:00;27.17;;;15.75;;
13651;SDS011;6899;51.546;6.912;2022-10-31T00:25:28;29.02;;;17.42;;
13651;SDS011;6899;51.546;6.912;2022-10-31T00:27:59;25.10;;;14.27;;
13651;SDS011;6899;51.546;6.912;2022-10-31T00:30:25;24.92;;;13.05;;
13651;SDS011;6899;51.546;6.912;2022-10-31T00:32:52;21.60;;;13.90;;
13651;SDS011;6899;51.546;6.912;2022-10-31T00:35:19;23.15;;;14.27;;
13651;SDS011;6899;51.546;6.912;2022-10-31T00:37:46;20.85;;;14.10;;
13651;SDS011;6899;51.546;6.912;2022-10-31T00:40:14;26.27;;;15.85;;
13651;SDS011;6899;51.546;6.912;2022-10-31T00:42:41;22.83;;;14.82;;
13651;SDS011;6899;51.546;6.912;2022-10-31T00:45:09;19.65;;;14.60;;
13651;SDS011;6899;51.546;6.912;2022-10-31T00:47:36;23.75;;;15.35;;
13651;SDS011;6899;51.546;6.912;2022-10-31T00:50:03;25.10;;;15.15;;
13651;SDS011;6899;51.546;6.912;2022-10-31T00:52:31;31.02;;;17.50;;
13651;SDS011;6899;51.546;6.912;2022-10-31T00:55:00;23.20;;;13.82;;
13651;SDS011;6899;51.546;6.912;2022-10-31T00:57:29;21.60;;;14.40;;
13651;SDS011;6899;51.546;6.912;2022-10-31T00:59:55;30.10;;;17.15;;
13651;SDS011;6899;51.546;6.912;2022-10-31T01:02:22;30.02;;;17.52;;
13651;SDS011;6899;51.546;6.912;2022-10-31T01:04:49;26.73;;;16.52;;
13651;SDS011;6899;51.546;6.912;2022-10-31T01:07:16;24.05;;;16.10;;
13651;SDS011;6899;51.546;6.912;2022-10-31T01:09:42;35.25;;;19.67;;
13651;SDS011;6899;51.546;6.912;2022-10-31T01:12:09;24.63;;;16.00;;
13651;SDS011;6899;51.546;6.912;2022-10-31T01:14:38;27.73;;;18.35;;
13651;SDS011;6899;51.546;6.912;2022-10-31T01:17:08;27.08;;;16.90;;
13651;SDS011;6899;51.546;6.912;2022-10-31T01:19:35;27.55;;;15.75;;
13651;SDS011;6899;51.546;6.912;2022-10-31T01:22:02;33.08;;;18.35;;
13651;SDS011;6899;51.546;6.912;2022-10-31T01:24:29;28.25;;;17.45;;
13651;SDS011;6899;51.546;6.912;2022-10-31T01:26:55;24.35;;;15.05;;
13651;SDS011;6899;51.546;6.912;2022-10-31T01:29:22;23.60;;;14.88;;
13651;SDS011;6899;51.546;6.912;2022-10-31T01:31:50;32.00;;;16.83;;
13651;SDS011;6899;51.546;6.912;2022-10-31T01:34:17;23.50;;;14.45;;
13651;SDS011;6899;51.546;6.912;2022-10-31T01:36:44;23.13;;;14.50;;
13651;SDS011;6899;51.546;6.912;2022-10-31T01:39:16;26.95;;;15.70;;
13651;SDS011;6899;51.546;6.912;2022-10-31T01:41:44;26.05;;;16.13;;
13651;SDS011;6899;51.546;6.912;2022-10-31T01:47:17;33.63;;;19.55;;
13651;SDS011;6899;51.546;6.912;2022-10-31T01:49:46;32.05;;;18.48;;
13651;SDS011;6899;51.546;6.912;2022-10-31T01:52:18;27.35;;;17.20;;
13651;SDS011;6899;51.546;6.912;2022-10-31T01:54:50;29.73;;;17.48;;
13651;SDS011;6899;51.546;6.912;2022-10-31T01:57:20;26.35;;;15.73;;
13651;SDS011;6899;51.546;6.912;2022-10-31T01:59:49;31.85;;;18.15;;
13651;SDS011;6899;51.546;6.912;2022-10-31T02:02:22;27.73;;;15.45;;
13651;SDS011;6899;51.546;6.912;2022-10-31T02:04:50;28.50;;;15.73;;
13651;SDS011;6899;51.546;6.912;2022-10-31T02:07:20;22.05;;;15.50;;
13651;SDS011;6899;51.546;6.912;2022-10-31T02:09:51;23.35;;;15.45;;
13651;SDS011;6899;51.546;6.912;2022-10-31T02:12:19;32.85;;;19.77;;
13651;SDS011;6899;51.546;6.912;2022-10-31T02:14:46;30.80;;;17.10;;
13651;SDS011;6899;51.546;6.912;2022-10-31T02:17:13;35.65;;;20.02;;
13651;SDS011;6899;51.546;6.912;2022-10-31T02:19:45;33.80;;;18.88;;
13651;SDS011;6899;51.546;6.912;2022-10-31T02:22:19;37.00;;;20.88;;
13651;SDS011;6899;51.546;6.912;2022-10-31T02:24:54;35.47;;;19.42;;
13651;SDS011;6899;51.546;6.912;2022-10-31T02:27:51;31.27;;;18.55;;
13651;SDS011;6899;51.546;6.912;2022-10-31T02:30:35;30.40;;;16.90;;
13651;SDS011;6899;51.546;6.912;2022-10-31T02:33:11;26.75;;;16.67;;
13651;SDS011;6899;51.546;6.912;2022-10-31T02:35:51;31.75;;;18.80;;
13651;SDS011;6899;51.546;6.912;2022-10-31T02:38:27;34.10;;;19.65;;
13651;SDS011;6899;51.546;6.912;2022-10-31T02:41:04;33.67;;;18.25;;
13651;SDS011;6899;51.546;6.912;2022-10-31T02:43:40;30.92;;;17.27;;
13651;SDS011;6899;51.546;6.912;2022-10-31T02:46:13;28.70;;;15.90;;
13651;SDS011;6899;51.546;6.912;2022-10-31T02:48:46;30.48;;;17.92;;
13651;SDS011;6899;51.546;6.912;2022-10-31T02:51:16;27.10;;;16.92;;
13651;SDS011;6899;51.546;6.912;2022-10-31T02:53:44;25.38;;;15.82;;
13651;SDS011;6899;51.546;6.912;2022-10-31T02:56:12;32.83;;;17.52;;
13651;SDS011;6899;51.546;6.912;2022-10-31T02:58:42;25.70;;;16.30;;
13651;SDS011;6899;51.546;6.912;2022-10-31T03:01:18;22.67;;;14.55;;
13651;SDS011;6899;51.546;6.912;2022-10-31T03:04:04;25.90;;;15.18;;
13651;SDS011;6899;51.546;6.912;2022-10-31T03:06:44;27.98;;;16.65;;
13651;SDS011;6899;51.546;6.912;2022-10-31T03:09:17;24.10;;;14.27;;
13651;SDS011;6899;51.546;6.912;2022-10-31T03:11:53;24.50;;;14.45;;
13651;SDS011;6899;51.546;6.912;2022-10-31T03:14:26;28.63;;;15.85;;
13651;SDS011;6899;51.546;6.912;2022-10-31T03:17:01;23.65;;;14.35;;
13651;SDS011;6899;51.546;6.912;2022-10-31T03:19:34;29.65;;;15.30;;
13651;SDS011;6899;51.546;6.912;2022-10-31T03:22:07;22.85;;;15.02;;
13651;SDS011;6899;51.546;6.912;2022-10-31T03:24:39;22.60;;;14.48;;
13651;SDS011;6899;51.546;6.912;2022-10-31T03:27:08;24.33;;;14.40;;
13651;SDS011;6899;51.546;6.912;2022-10-31T03:29:38;23.95;;;15.55;;
13651;SDS011;6899;51.546;6.912;2022-10-31T03:32:08;25.83;;;15.38;;
13651;SDS011;6899;51.546;6.912;2022-10-31T03:34:39;28.33;;;16.30;;
13651;SDS011;6899;51.546;6.912;2022-10-31T03:37:10;26.73;;;15.68;;
13651;SDS011;6899;51.546;6.912;2022-10-31T03:39:40;23.65;;;14.98;;
13651;SDS011;6899;51.546;6.912;2022-10-31T03:42:10;25.98;;;15.63;;
13651;SDS011;6899;51.546;6.912;2022-10-31T03:44:40;25.70;;;14.57;;
13651;SDS011;6899;51.546;6.912;2022-10-31T03:47:12;23.30;;;13.77;;
13651;SDS011;6899;51.546;6.912;2022-10-31T03:49:41;23.63;;;15.52;;
13651;SDS011;6899;51.546;6.912;2022-10-31T03:52:09;28.38;;;15.18;;
13651;SDS011;6899;51.546;6.912;2022-10-31T03:54:43;25.92;;;13.98;;
13651;SDS011;6899;51.546;6.912;2022-10-31T03:57:13;26.20;;;14.60;;
13651;SDS011;6899;51.546;6.912;2022-10-31T03:59:47;32.90;;;14.95;;
13651;SDS011;6899;51.546;6.912;2022-10-31T04:02:21;22.25;;;14.80;;
13651;SDS011;6899;51.546;6.912;2022-10-31T04:04:52;23.48;;;15.10;;
13651;SDS011;6899;51.546;6.912;2022-10-31T04:07:20;25.25;;;15.15;;
13651;SDS011;6899;51.546;6.912;2022-10-31T04:09:48;26.77;;;15.13;;
13651;SDS011;6899;51.546;6.912;2022-10-31T04:12:18;24.10;;;16.20;;
13651;SDS011;6899;51.546;6.912;2022-10-31T04:14:47;27.23;;;15.98;;
13651;SDS011;6899;51.546;6.912;2022-10-31T04:17:16;24.95;;;16.10;;
13651;SDS011;6899;51.546;6.912;2022-10-31T04:19:46;31.08;;;18.60;;
13651;SDS011;6899;51.546;6.912;2022-10-31T04:22:14;29.20;;;17.23;;
13651;SDS011;6899;51.546;6.912;2022-10-31T04:24:41;27.33;;;18.25;;
13651;SDS011;6899;51.546;6.912;2022-10-31T04:27:08;28.60;;;16.90;;
13651;SDS011;6899;51.546;6.912;2022-10-31T04:29:35;33.60;;;19.58;;
13651;SDS011;6899;51.546;6.912;2022-10-31T04:32:01;30.60;;;17.52;;
13651;SDS011;6899;51.546;6.912;2022-10-31T04:34:31;38.35;;;20.25;;
13651;SDS011;6899;51.546;6.912;2022-10-31T04:36:58;42.70;;;25.67;;
13651;SDS011;6899;51.546;6.912;2022-10-31T04:39:26;36.22;;;21.17;;
13651;SDS011;6899;51.546;6.912;2022-10-31T04:41:53;41.55;;;21.83;;
13651;SDS011;6899;51.546;6.912;2022-10-31T04:44:20;51.10;;;27.15;;
13651;SDS011;6899;51.546;6.912;2022-10-31T04:46:47;44.50;;;23.73;;
13651;SDS011;6899;51.546;6.912;2022-10-31T04:49:14;40.00;;;21.65;;
13651;SDS011;6899;51.546;6.912;2022-10-31T04:51:40;36.80;;;21.27;;
13651;SDS011;6899;51.546;6.912;2022-10-31T04:54:07;40.10;;;21.48;;
13651;SDS011;6899;51.546;6.912;2022-10-31T04:56:35;39.90;;;20.60;;
13651;SDS011;6899;51.546;6.912;2022-10-31T04:59:02;37.20;;;20.15;;
13651;SDS011;6899;51.546;6.912;2022-10-31T05:01:29;36.80;;;19.92;;
13651;SDS011;6899;51.546;6.912;2022-10-31T05:03:56;33.85;;;19.90;;
13651;SDS011;6899;51.546;6.912;2022-10-31T05:06:23;33.78;;;18.50;;
13651;SDS011;6899;51.546;6.912;2022-10-31T05:08:49;30.08;;;17.60;;
13651;SDS011;6899;51.546;6.912;2022-10-31T05:11:17;33.28;;;18.85;;
13651;SDS011;6899;51.546;6.912;2022-10-31T05:13:45;29.90;;;18.33;;
13651;SDS011;6899;51.546;6.912;2022-10-31T05:16:12;30.30;;;17.48;;
13651;SDS011;6899;51.546;6.912;2022-10-31T05:18:39;31.17;;;17.48;;
13651;SDS011;6899;51.546;6.912;2022-10-31T05:21:05;31.38;;;18.33;;
13651;SDS011;6899;51.546;6.912;2022-10-31T05:23:35;31.30;;;18.23;;
13651;SDS011;6899;51.546;6.912;2022-10-31T05:26:02;44.92;;;24.98;;
13651;SDS011;6899;51.546;6.912;2022-10-31T05:28:29;41.80;;;22.80;;
13651;SDS011;6899;51.546;6.912;2022-10-31T05:30:57;45.55;;;26.80;;
13651;SDS011;6899;51.546;6.912;2022-10-31T05:33:24;38.40;;;23.30;;
13651;SDS011;6899;51.546;6.912;2022-10-31T05:35:51;36.88;;;21.30;;
13651;SDS011;6899;51.546;6.912;2022-10-31T05:38:18;42.30;;;23.15;;
13651;SDS011;6899;51.546;6.912;2022-10-31T05:40:45;42.15;;;23.25;;
13651;SDS011;6899;51.546;6.912;2022-10-31T05:43:11;42.58;;;22.48;;
13651;SDS011;6899;51.546;6.912;2022-10-31T05:45:38;38.13;;;23.05;;
13651;SDS011;6899;51.546;6.912;2022-10-31T05:48:07;34.45;;;21.17;;
13651;SDS011;6899;51.546;6.912;2022-10-31T05:50:34;38.55;;;23.73;;
13651;SDS011;6899;51.546;6.912;2022-10-31T05:53:02;36.72;;;21.77;;
13651;SDS011;6899;51.546;6.912;2022-10-31T05:55:30;42.55;;;24.40;;
13651;SDS011;6899;51.546;6.912;2022-10-31T05:57:58;40.85;;;24.30;;
13651;SDS011;6899;51.546;6.912;2022-10-31T06:00:25;35.53;;;22.38;;
13651;SDS011;6899;51.546;6.912;2022-10-31T06:02:57;39.38;;;23.27;;
13651;SDS011;6899;51.546;6.912;2022-10-31T06:05:26;39.20;;;22.65;;
13651;SDS011;6899;51.546;6.912;2022-10-31T06:07:53;47.30;;;24.75;;
13651;SDS011;6899;51.546;6.912;2022-10-31T06:10:19;40.45;;;22.80;;
13651;SDS011;6899;51.546;6.912;2022-10-31T06:12:46;51.85;;;26.67;;
13651;SDS011;6899;51.546;6.912;2022-10-31T06:15:14;42.13;;;24.00;;
13651;SDS011;6899;51.546;6.912;2022-10-31T06:17:41;39.15;;;22.73;;
13651;SDS011;6899;51.546;6.912;2022-10-31T06:20:08;38.67;;;22.38;;
13651;SDS011;6899;51.546;6.912;2022-10-31T06:22:37;38.10;;;21.85;;
13651;SDS011;6899;51.546;6.912;2022-10-31T06:25:04;44.45;;;25.92;;
13651;SDS011;6899;51.546;6.912;2022-10-31T06:27:31;46.67;;;26.60;;
13651;SDS011;6899;51.546;6.912;2022-10-31T06:29:58;43.05;;;25.60;;
13651;SDS011;6899;51.546;6.912;2022-10-31T06:32:30;47.42;;;26.65;;
13651;SDS011;6899;51.546;6.912;2022-10-31T06:35:03;42.50;;;26.67;;
13651;SDS011;6899;51.546;6.912;2022-10-31T06:37:30;44.60;;;25.75;;
13651;SDS011;6899;51.546;6.912;2022-10-31T06:39:59;42.92;;;25.85;;
13651;SDS011;6899;51.546;6.912;2022-10-31T06:42:25;46.22;;;26.27;;
13651;SDS011;6899;51.546;6.912;2022-10-31T06:44:52;61.92;;;32.22;;
13651;SDS011;6899;51.546;6.912;2022-10-31T06:47:19;59.03;;;32.65;;
13651;SDS011;6899;51.546;6.912;2022-10-31T06:49:46;63.70;;;33.20;;
13651;SDS011;6899;51.546;6.912;2022-10-31T06:52:13;51.08;;;28.38;;
13651;SDS011;6899;51.546;6.912;2022-10-31T06:54:40;51.05;;;28.88;;
13651;SDS011;6899;51.546;6.912;2022-10-31T06:57:08;54.25;;;29.50;;
13651;SDS011;6899;51.546;6.912;2022-10-31T06:59:35;54.15;;;29.33;;
13651;SDS011;6899;51.546;6.912;2022-10-31T07:02:02;50.88;;;27.95;;
13651;SDS011;6899;51.546;6.912;2022-10-31T07:04:29;57.90;;;34.13;;
13651;SDS011;6899;51.546;6.912;2022-10-31T07:06:58;65.95;;;35.05;;
13651;SDS011;6899;51.546;6.912;2022-10-31T07:09:25;56.88;;;31.80;;
13651;SDS011;6899;51.546;6.912;2022-10-31T07:11:52;59.03;;;33.00;;
13651;SDS011;6899;51.546;6.912;2022-10-31T07:14:21;55.15;;;29.40;;
13651;SDS011;6899;51.546;6.912;2022-10-31T07:16:48;53.05;;;29.27;;
13651;SDS011;6899;51.546;6.912;2022-10-31T07:19:16;53.92;;;29.15;;
13651;SDS011;6899;51.546;6.912;2022-10-31T07:21:46;49.30;;;29.02;;
13651;SDS011;6899;51.546;6.912;2022-10-31T07:24:13;58.25;;;31.02;;
13651;SDS011;6899;51.546;6.912;2022-10-31T07:26:39;51.65;;;29.00;;
13651;SDS011;6899;51.546;6.912;2022-10-31T07:29:07;46.72;;;27.33;;
13651;SDS011;6899;51.546;6.912;2022-10-31T07:31:35;45.08;;;27.35;;
13651;SDS011;6899;51.546;6.912;2022-10-31T07:34:05;54.30;;;29.50;;
13651;SDS011;6899;51.546;6.912;2022-10-31T07:36:35;42.78;;;24.75;;
13651;SDS011;6899;51.546;6.912;2022-10-31T07:39:04;62.42;;;34.72;;
13651;SDS011;6899;51.546;6.912;2022-10-31T07:41:30;58.47;;;36.47;;
13651;SDS011;6899;51.546;6.912;2022-10-31T07:43:57;54.05;;;31.52;;
13651;SDS011;6899;51.546;6.912;2022-10-31T07:46:24;57.60;;;30.70;;
13651;SDS011;6899;51.546;6.912;2022-10-31T07:48:53;51.55;;;29.00;;
13651;SDS011;6899;51.546;6.912;2022-10-31T07:51:19;51.97;;;29.45;;
13651;SDS011;6899;51.546;6.912;2022-10-31T07:53:46;51.22;;;29.60;;
13651;SDS011;6899;51.546;6.912;2022-10-31T07:56:13;54.72;;;30.02;;
13651;SDS011;6899;51.546;6.912;2022-10-31T07:58:40;53.22;;;30.08;;
13651;SDS011;6899;51.546;6.912;2022-10-31T08:01:07;61.78;;;31.55;;
13651;SDS011;6899;51.546;6.912;2022-10-31T08:03:33;51.72;;;30.45;;
13651;SDS011;6899;51.546;6.912;2022-10-31T08:06:11;51.58;;;30.38;;
13651;SDS011;6899;51.546;6.912;2022-10-31T08:08:44;54.03;;;31.52;;
13651;SDS011;6899;51.546;6.912;2022-10-31T08:11:13;56.90;;;32.65;;
13651;SDS011;6899;51.546;6.912;2022-10-31T08:13:40;55.70;;;33.92;;
13651;SDS011;6899;51.546;6.912;2022-10-31T08:16:08;61.50;;;35.53;;
13651;SDS011;6899;51.546;6.912;2022-10-31T08:18:34;56.65;;;36.13;;
13651;SDS011;6899;51.546;6.912;2022-10-31T08:21:02;62.40;;;37.85;;
13651;SDS011;6899;51.546;6.912;2022-10-31T08:23:30;57.33;;;35.03;;
13651;SDS011;6899;51.546;6.912;2022-10-31T08:25:57;57.47;;;36.63;;
13651;SDS011;6899;51.546;6.912;2022-10-31T08:28:24;65.35;;;38.55;;
13651;SDS011;6899;51.546;6.912;2022-10-31T08:30:51;60.00;;;38.78;;
13651;SDS011;6899;51.546;6.912;2022-10-31T08:33:19;61.28;;;37.78;;
13651;SDS011;6899;51.546;6.912;2022-10-31T08:35:46;52.00;;;35.15;;
13651;SDS011;6899;51.546;6.912;2022-10-31T08:38:13;59.38;;;35.92;;
13651;SDS011;6899;51.546;6.912;2022-10-31T08:40:41;58.33;;;33.30;;
13651;SDS011;6899;51.546;6.912;2022-10-31T08:43:11;57.28;;;35.25;;
13651;SDS011;6899;51.546;6.912;2022-10-31T08:45:39;54.75;;;33.63;;
13651;SDS011;6899;51.546;6.912;2022-10-31T08:48:08;50.13;;;33.67;;
13651;SDS011;6899;51.546;6.912;2022-10-31T08:50:37;55.90;;;34.65;;
13651;SDS011;6899;51.546;6.912;2022-10-31T08:53:04;55.78;;;34.47;;
13651;SDS011;6899;51.546;6.912;2022-10-31T08:55:33;63.83;;;35.67;;
13651;SDS011;6899;51.546;6.912;2022-10-31T08:58:02;60.72;;;34.83;;
13651;SDS011;6899;51.546;6.912;2022-10-31T09:00:30;59.10;;;35.88;;
13651;SDS011;6899;51.546;6.912;2022-10-31T09:02:57;56.30;;;34.97;;
13651;SDS011;6899;51.546;6.912;2022-10-31T09:05:25;60.58;;;36.35;;
13651;SDS011;6899;51.546;6.912;2022-10-31T09:07:54;63.30;;;35.67;;
13651;SDS011;6899;51.546;6.912;2022-10-31T09:10:23;67.97;;;37.13;;
13651;SDS011;6899;51.546;6.912;2022-10-31T09:12:54;59.70;;;35.28;;
13651;SDS011;6899;51.546;6.912;2022-10-31T09:15:23;54.53;;;34.22;;
13651;SDS011;6899;51.546;6.912;2022-10-31T09:17:51;62.20;;;36.20;;
13651;SDS011;6899;51.546;6.912;2022-10-31T09:20:19;68.55;;;35.97;;
13651;SDS011;6899;51.546;6.912;2022-10-31T09:22:46;62.78;;;35.35;;
13651;SDS011;6899;51.546;6.912;2022-10-31T09:25:16;58.80;;;34.95;;
13651;SDS011;6899;51.546;6.912;2022-10-31T09:27:42;61.05;;;35.88;;
13651;SDS011;6899;51.546;6.912;2022-10-31T09:30:10;61.00;;;34.95;;
13651;SDS011;6899;51.546;6.912;2022-10-31T09:32:38;61.35;;;36.67;;
13651;SDS011;6899;51.546;6.912;2022-10-31T09:35:05;54.50;;;34.45;;
13651;SDS011;6899;51.546;6.912;2022-10-31T09:37:33;51.58;;;32.05;;
13651;SDS011;6899;51.546;6.912;2022-10-31T09:40:00;53.25;;;31.90;;
13651;SDS011;6899;51.546;6.912;2022-10-31T09:42:31;51.83;;;31.45;;
13651;SDS011;6899;51.546;6.912;2022-10-31T09:45:11;60.75;;;33.70;;
13651;SDS011;6899;51.546;6.912;2022-10-31T09:47:49;52.47;;;33.90;;
13651;SDS011;6899;51.546;6.912;2022-10-31T09:50:27;62.47;;;33.58;;
13651;SDS011;6899;51.546;6.912;2022-10-31T09:53:00;54.20;;;31.85;;
13651;SDS011;6899;51.546;6.912;2022-10-31T09:55:31;47.75;;;31.23;;
13651;SDS011;6899;51.546;6.912;2022-10-31T09:58:03;53.13;;;32.47;;
13651;SDS011;6899;51.546;6.912;2022-10-31T10:00:30;53.78;;;31.48;;
13651;SDS011;6899;51.546;6.912;2022-10-31T10:03:06;46.25;;;26.75;;
13651;SDS011;6899;51.546;6.912;2022-10-31T10:05:40;45.72;;;27.05;;
13651;SDS011;6899;51.546;6.912;2022-10-31T10:08:13;40.78;;;26.88;;
13651;SDS011;6899;51.546;6.912;2022-10-31T10:10:46;47.03;;;26.30;;
13651;SDS011;6899;51.546;6.912;2022-10-31T10:13:19;41.90;;;26.27;;
13651;SDS011;6899;51.546;6.912;2022-10-31T10:16:00;44.58;;;24.65;;
13651;SDS011;6899;51.546;6.912;2022-10-31T10:18:41;47.22;;;26.23;;
13651;SDS011;6899;51.546;6.912;2022-10-31T10:21:21;44.35;;;26.45;;
13651;SDS011;6899;51.546;6.912;2022-10-31T10:24:02;49.22;;;26.33;;
13651;SDS011;6899;51.546;6.912;2022-10-31T10:26:40;38.78;;;23.50;;
13651;SDS011;6899;51.546;6.912;2022-10-31T10:29:20;36.95;;;22.58;;
13651;SDS011;6899;51.546;6.912;2022-10-31T10:31:55;36.70;;;20.27;;
13651;SDS011;6899;51.546;6.912;2022-10-31T10:34:27;34.53;;;20.08;;
13651;SDS011;6899;51.546;6.912;2022-10-31T10:37:00;31.38;;;19.50;;
13651;SDS011;6899;51.546;6.912;2022-10-31T10:39:29;34.30;;;18.83;;
13651;SDS011;6899;51.546;6.912;2022-10-31T10:42:04;33.95;;;19.83;;
13651;SDS011;6899;51.546;6.912;2022-10-31T10:44:54;32.60;;;20.05;;
13651;SDS011;6899;51.546;6.912;2022-10-31T10:47:40;33.53;;;20.73;;
13651;SDS011;6899;51.546;6.912;2022-10-31T10:50:12;35.45;;;20.45;;
13651;SDS011;6899;51.546;6.912;2022-10-31T10:52:47;33.17;;;19.23;;
13651;SDS011;6899;51.546;6.912;2022-10-31T10:55:29;38.92;;;20.98;;
13651;SDS011;6899;51.546;6.912;2022-10-31T10:58:14;33.30;;;20.02;;
13651;SDS011;6899;51.546;6.912;2022-10-31T11:00:41;34.97;;;20.75;;
13651;SDS011;6899;51.546;6.912;2022-10-31T11:03:19;30.23;;;19.67;;
13651;SDS011;6899;51.546;6.912;2022-10-31T11:05:50;31.08;;;19.10;;
13651;SDS011;6899;51.546;6.912;2022-10-31T11:08:24;30.63;;;19.08;;
13651;SDS011;6899;51.546;6.912;2022-10-31T11:10:56;29.90;;;18.40;;
13651;SDS011;6899;51.546;6.912;2022-10-31T11:13:25;34.17;;;20.13;;
13651;SDS011;6899;51.546;6.912;2022-10-31T11:15:54;31.05;;;20.15;;
13651;SDS011;6899;51.546;6.912;2022-10-31T11:18:24;33.03;;;18.55;;
13651;SDS011;6899;51.546;6.912;2022-10-31T11:20:55;32.42;;;19.52;;
13651;SDS011;6899;51.546;6.912;2022-10-31T11:23:24;28.55;;;19.10;;
13651;SDS011;6899;51.546;6.912;2022-10-31T11:25:53;30.98;;;18.25;;
13651;SDS011;6899;51.546;6.912;2022-10-31T11:28:22;30.90;;;20.02;;
13651;SDS011;6899;51.546;6.912;2022-10-31T11:30:50;32.95;;;18.38;;
13651;SDS011;6899;51.546;6.912;2022-10-31T11:33:24;29.95;;;18.60;;
13651;SDS011;6899;51.546;6.912;2022-10-31T11:35:55;36.22;;;19.77;;
13651;SDS011;6899;51.546;6.912;2022-10-31T11:38:23;27.30;;;17.48;;
13651;SDS011;6899;51.546;6.912;2022-10-31T11:40:53;29.27;;;17.13;;
13651;SDS011;6899;51.546;6.912;2022-10-31T11:43:22;29.95;;;17.85;;
13651;SDS011;6899;51.546;6.912;2022-10-31T11:45:52;25.70;;;17.90;;
13651;SDS011;6899;51.546;6.912;2022-10-31T11:48:20;28.88;;;17.88;;
13651;SDS011;6899;51.546;6.912;2022-10-31T11:50:50;27.48;;;17.27;;
13651;SDS011;6899;51.546;6.912;2022-10-31T11:53:20;30.58;;;17.90;;
13651;SDS011;6899;51.546;6.912;2022-10-31T11:55:59;27.98;;;17.55;;
13651;SDS011;6899;51.546;6.912;2022-10-31T11:58:32;25.63;;;14.30;;
13651;SDS011;6899;51.546;6.912;2022-10-31T12:01:02;25.85;;;15.10;;
13651;SDS011;6899;51.546;6.912;2022-10-31T12:03:38;28.00;;;16.95;;
13651;SDS011;6899;51.546;6.912;2022-10-31T12:06:20;24.77;;;15.43;;
13651;SDS011;6899;51.546;6.912;2022-10-31T12:08:51;24.02;;;14.93;;
13651;SDS011;6899;51.546;6.912;2022-10-31T12:11:27;26.50;;;15.40;;
13651;SDS011;6899;51.546;6.912;2022-10-31T12:14:11;25.65;;;15.45;;
13651;SDS011;6899;51.546;6.912;2022-10-31T12:16:47;26.90;;;15.07;;
13651;SDS011;6899;51.546;6.912;2022-10-31T12:19:21;24.42;;;15.30;;
13651;SDS011;6899;51.546;6.912;2022-10-31T12:22:04;27.63;;;14.75;;
13651;SDS011;6899;51.546;6.912;2022-10-31T12:24:50;23.88;;;14.80;;
13651;SDS011;6899;51.546;6.912;2022-10-31T12:27:32;25.75;;;14.93;;
13651;SDS011;6899;51.546;6.912;2022-10-31T12:30:17;25.70;;;14.45;;
13651;SDS011;6899;51.546;6.912;2022-10-31T12:32:53;22.05;;;14.15;;
13651;SDS011;6899;51.546;6.912;2022-10-31T12:35:45;24.45;;;14.75;;
13651;SDS011;6899;51.546;6.912;2022-10-31T12:38:22;18.90;;;13.40;;
13651;SDS011;6899;51.546;6.912;2022-10-31T12:41:02;21.90;;;14.02;;
13651;SDS011;6899;51.546;6.912;2022-10-31T12:43:44;23.67;;;14.52;;
13651;SDS011;6899;51.546;6.912;2022-10-31T12:46:17;26.75;;;14.70;;
13651;SDS011;6899;51.546;6.912;2022-10-31T12:48:56;23.67;;;14.65;;
13651;SDS011;6899;51.546;6.912;2022-10-31T12:51:33;25.02;;;14.75;;
13651;SDS011;6899;51.546;6.912;2022-10-31T12:54:17;23.15;;;13.40;;
13651;SDS011;6899;51.546;6.912;2022-10-31T12:56:59;24.15;;;13.25;;
13651;SDS011;6899;51.546;6.912;2022-10-31T12:59:33;23.83;;;13.18;;
13651;SDS011;6899;51.546;6.912;2022-10-31T13:02:06;20.67;;;13.07;;
13651;SDS011;6899;51.546;6.912;2022-10-31T13:04:43;20.15;;;13.18;;
13651;SDS011;6899;51.546;6.912;2022-10-31T13:07:14;24.02;;;13.65;;
13651;SDS011;6899;51.546;6.912;2022-10-31T13:09:47;25.00;;;13.82;;
13651;SDS011;6899;51.546;6.912;2022-10-31T13:12:30;20.30;;;12.52;;
13651;SDS011;6899;51.546;6.912;2022-10-31T13:15:01;25.20;;;13.55;;
13651;SDS011;6899;51.546;6.912;2022-10-31T13:17:33;22.52;;;13.68;;
13651;SDS011;6899;51.546;6.912;2022-10-31T13:20:07;26.63;;;13.68;;
13651;SDS011;6899;51.546;6.912;2022-10-31T13:22:42;28.42;;;14.63;;
13651;SDS011;6899;51.546;6.912;2022-10-31T13:25:31;26.27;;;13.38;;
13651;SDS011;6899;51.546;6.912;2022-10-31T13:28:12;19.08;;;13.18;;
13651;SDS011;6899;51.546;6.912;2022-10-31T13:30:49;19.02;;;12.38;;
13651;SDS011;6899;51.546;6.912;2022-10-31T13:33:19;20.23;;;12.27;;
13651;SDS011;6899;51.546;6.912;2022-10-31T13:35:58;23.75;;;13.07;;
13651;SDS011;6899;51.546;6.912;2022-10-31T13:38:45;28.60;;;13.63;;
13651;SDS011;6899;51.546;6.912;2022-10-31T13:41:20;22.27;;;14.30;;
13651;SDS011;6899;51.546;6.912;2022-10-31T13:44:00;22.63;;;13.15;;
13651;SDS011;6899;51.546;6.912;2022-10-31T13:46:35;22.00;;;12.23;;
13651;SDS011;6899;51.546;6.912;2022-10-31T13:49:03;19.95;;;12.63;;
13651;SDS011;6899;51.546;6.912;2022-10-31T13:51:47;22.15;;;11.88;;
13651;SDS011;6899;51.546;6.912;2022-10-31T13:54:20;22.83;;;12.05;;
13651;SDS011;6899;51.546;6.912;2022-10-31T13:56:48;18.35;;;12.00;;
13651;SDS011;6899;51.546;6.912;2022-10-31T13:59:22;24.20;;;13.32;;
13651;SDS011;6899;51.546;6.912;2022-10-31T14:01:53;25.65;;;13.35;;
13651;SDS011;6899;51.546;6.912;2022-10-31T14:04:22;23.30;;;12.43;;
13651;SDS011;6899;51.546;6.912;2022-10-31T14:06:55;23.58;;;14.07;;
13651;SDS011;6899;51.546;6.912;2022-10-31T14:09:28;24.42;;;12.95;;
13651;SDS011;6899;51.546;6.912;2022-10-31T14:11:57;21.52;;;12.00;;
13651;SDS011;6899;51.546;6.912;2022-10-31T14:14:33;21.55;;;12.43;;
13651;SDS011;6899;51.546;6.912;2022-10-31T14:17:06;18.98;;;11.68;;
13651;SDS011;6899;51.546;6.912;2022-10-31T14:19:59;23.05;;;11.93;;
13651;SDS011;6899;51.546;6.912;2022-10-31T14:22:31;22.45;;;12.85;;
13651;SDS011;6899;51.546;6.912;2022-10-31T14:30:53;21.63;;;12.00;;
13651;SDS011;6899;51.546;6.912;2022-10-31T14:33:22;24.38;;;12.25;;
13651;SDS011;6899;51.546;6.912;2022-10-31T14:35:53;21.95;;;11.60;;
13651;SDS011;6899;51.546;6.912;2022-10-31T14:38:32;17.02;;;11.32;;
13651;SDS011;6899;51.546;6.912;2022-10-31T14:41:21;23.52;;;12.65;;
13651;SDS011;6899;51.546;6.912;2022-10-31T14:44:04;18.75;;;10.93;;
13651;SDS011;6899;51.546;6.912;2022-10-31T14:46:49;22.10;;;12.38;;
13651;SDS011;6899;51.546;6.912;2022-10-31T14:49:32;20.17;;;12.25;;
13651;SDS011;6899;51.546;6.912;2022-10-31T14:52:12;18.58;;;11.68;;
13651;SDS011;6899;51.546;6.912;2022-10-31T14:54:43;18.45;;;11.70;;
13651;SDS011;6899;51.546;6.912;2022-10-31T14:57:15;22.98;;;11.73;;
13651;SDS011;6899;51.546;6.912;2022-10-31T14:59:47;22.25;;;11.98;;
13651;SDS011;6899;51.546;6.912;2022-10-31T15:02:20;19.17;;;11.70;;
13651;SDS011;6899;51.546;6.912;2022-10-31T15:04:53;18.95;;;11.75;;